createdAt,value
2022-12-28T02:31:21.956Z,22.59
2022-12-28T02:32:21.907Z,22.60
2022-12-28T02:33:21.916Z,22.60
2022-12-28T02:34:21.890Z,22.60
2022-12-28T02:35:21.862Z,22.59
2022-12-28T02:36:21.854Z,22.59
2022-12-28T02:37:21.829Z,22.59
2022-12-28T02:38:21.820Z,22.60
2022-12-28T02:39:21.787Z,22.59
2022-12-28T02:40:21.760Z,22.59
2022-12-28T02:41:21.745Z,22.59
2022-12-28T02:43:21.693Z,22.60
2022-12-28T02:44:21.668Z,22.59
2022-12-28T02:45:21.656Z,22.60
2022-12-28T02:46:21.676Z,22.59
2022-12-28T02:48:21.591Z,22.59
2022-12-28T02:49:21.559Z,22.58
2022-12-28T02:50:21.537Z,22.59
2022-12-28T02:51:21.504Z,22.59
2022-12-28T02:53:21.483Z,22.59
2022-12-28T02:54:21.452Z,22.59
2022-12-28T02:55:21.435Z,22.59
2022-12-28T02:56:21.415Z,22.59
2022-12-28T02:57:21.410Z,22.60
2022-12-28T02:58:21.403Z,22.60
2022-12-28T02:59:21.351Z,22.59
2022-12-28T03:00:21.333Z,22.59
2022-12-28T03:01:21.395Z,22.60
2022-12-28T03:02:21.532Z,22.59
2022-12-28T03:04:21.259Z,22.60
2022-12-28T03:05:21.217Z,22.60
2022-12-28T03:06:25.532Z,22.60
2022-12-28T03:07:22.200Z,22.60
2022-12-28T03:08:21.179Z,22.59
2022-12-28T03:10:21.128Z,22.60
2022-12-28T03:11:21.101Z,22.60
2022-12-28T03:12:21.095Z,22.61
2022-12-28T03:13:21.057Z,22.60
2022-12-28T03:14:21.038Z,22.60
2022-12-28T03:15:21.010Z,22.60
2022-12-28T03:17:21.005Z,22.60
2022-12-28T03:18:20.973Z,22.61
2022-12-28T03:19:20.936Z,22.61
2022-12-28T03:20:20.931Z,22.61
2022-12-28T03:21:20.897Z,22.61
2022-12-28T03:22:20.909Z,22.61
2022-12-28T03:23:20.824Z,22.61
2022-12-28T03:24:20.806Z,22.61
2022-12-28T03:25:20.799Z,22.61
2022-12-28T03:26:20.772Z,22.61
2022-12-28T03:27:20.742Z,22.61
2022-12-28T03:28:20.716Z,22.61
2022-12-28T03:29:20.701Z,22.61
2022-12-28T03:30:20.673Z,22.61
2022-12-28T03:31:20.727Z,22.62
2022-12-28T03:32:20.656Z,22.61
2022-12-28T03:33:20.611Z,22.61
2022-12-28T03:34:20.627Z,22.61
2022-12-28T03:35:20.572Z,22.61
2022-12-28T03:36:20.549Z,22.61
2022-12-28T03:37:20.547Z,22.61
2022-12-28T03:38:20.524Z,22.61
2022-12-28T03:39:20.478Z,22.61
2022-12-28T03:40:20.449Z,22.61
2022-12-28T03:41:20.427Z,22.62
2022-12-28T03:42:20.421Z,22.62
2022-12-28T03:43:20.403Z,22.62
2022-12-28T03:44:20.370Z,22.62
2022-12-28T03:45:44.429Z,22.61
2022-12-28T03:47:20.303Z,22.61
2022-12-28T03:48:20.294Z,22.61
2022-12-28T03:49:20.270Z,22.62
2022-12-28T03:50:20.253Z,22.61
2022-12-28T03:51:20.254Z,22.61
2022-12-28T03:52:20.193Z,22.62
2022-12-28T03:54:20.167Z,22.62
2022-12-28T03:55:20.140Z,22.61
2022-12-28T03:56:20.133Z,22.62
2022-12-28T07:59:14.180Z,22.77
2022-12-28T08:42:13.137Z,22.83
2022-12-28T08:58:12.735Z,23.00
2022-12-28T09:35:11.662Z,23.22
2022-12-28T09:38:11.579Z,23.23
2022-12-28T09:39:11.632Z,23.25
2022-12-28T09:40:11.526Z,23.25
2022-12-28T09:41:11.499Z,23.26
2022-12-28T09:42:11.485Z,23.27
2022-12-28T09:44:11.402Z,23.27
2022-12-28T09:45:11.367Z,23.28
2022-12-28T09:46:11.380Z,23.27
2022-12-28T09:47:11.382Z,23.27
2022-12-28T09:48:11.307Z,23.29
2022-12-28T09:49:11.256Z,23.28
2022-12-28T09:50:11.248Z,23.28
2022-12-28T09:51:11.201Z,23.29
2022-12-28T09:52:11.172Z,23.30
2022-12-28T09:53:11.174Z,23.29
2022-12-28T09:54:11.143Z,23.29
2022-12-28T09:55:11.121Z,23.29
2022-12-28T09:56:11.079Z,23.30
2022-12-28T09:57:11.051Z,23.30
2022-12-28T09:58:11.072Z,23.30
2022-12-28T10:18:11.258Z,23.34
2022-12-28T10:23:11.256Z,23.36
2022-12-28T12:59:06.429Z,23.10
2022-12-28T13:00:06.406Z,23.11
2022-12-28T13:01:06.489Z,23.10
2022-12-28T13:02:06.564Z,23.10
2022-12-28T13:03:06.352Z,23.10
2022-12-28T13:04:06.306Z,23.10
2022-12-28T13:05:06.265Z,23.09
2022-12-28T13:06:06.253Z,23.09
2022-12-28T13:07:06.214Z,23.09
2022-12-28T13:08:06.181Z,23.09
2022-12-28T13:09:06.245Z,23.09
2022-12-28T13:10:06.136Z,23.09
2022-12-28T13:11:06.103Z,23.09
2022-12-28T13:12:06.060Z,23.09
2022-12-28T13:13:06.040Z,23.09
2022-12-28T13:14:06.017Z,23.09
2022-12-28T13:15:10.858Z,23.09
2022-12-28T13:16:06.005Z,23.09
2022-12-28T13:17:05.914Z,23.09
2022-12-28T13:18:43.471Z,23.09
2022-12-28T13:21:12.078Z,23.09
2022-12-28T13:23:05.744Z,23.09
2022-12-28T13:24:05.712Z,23.09
2022-12-28T13:25:05.690Z,23.09
2022-12-28T13:26:05.659Z,23.10
2022-12-28T13:27:10.694Z,23.10
2022-12-28T13:29:05.561Z,23.10
2022-12-28T13:30:05.547Z,23.10
2022-12-28T13:31:05.650Z,23.10
2022-12-28T13:32:05.536Z,23.10
2022-12-28T13:33:05.470Z,23.10
2022-12-28T13:34:05.470Z,23.10
2022-12-28T13:35:05.403Z,23.09
2022-12-28T13:36:05.395Z,23.09
2022-12-28T13:37:05.374Z,23.09
2022-12-28T13:38:05.311Z,23.09
2022-12-28T13:39:05.288Z,23.08
2022-12-28T13:40:05.257Z,23.08
2022-12-28T13:41:05.224Z,23.09
2022-12-28T13:42:05.198Z,23.09
2022-12-28T13:43:05.177Z,23.09
2022-12-28T13:44:05.170Z,23.08
2022-12-28T13:45:05.128Z,23.08
2022-12-28T13:46:05.113Z,23.08
2022-12-28T13:47:05.368Z,23.08
2022-12-28T13:48:05.035Z,23.07
2022-12-28T13:49:05.016Z,23.07
2022-12-28T13:50:05.096Z,23.07
2022-12-28T13:51:04.955Z,23.07
2022-12-28T13:52:04.942Z,23.07
2022-12-28T13:53:04.898Z,23.07
2022-12-28T13:54:04.874Z,23.07
2022-12-28T13:55:04.837Z,23.06
2022-12-28T13:56:04.808Z,23.07
2022-12-28T13:57:36.447Z,23.06
2022-12-28T13:59:04.744Z,23.06
2022-12-28T14:00:04.704Z,23.06
2022-12-28T14:01:04.786Z,23.07
2022-12-28T14:02:04.736Z,23.07
2022-12-28T14:03:04.624Z,23.06
2022-12-28T14:04:42.497Z,23.06
2022-12-28T14:06:04.555Z,23.05
2022-12-28T14:07:04.547Z,23.06
2022-12-28T14:08:04.501Z,23.06
2022-12-28T14:09:05.993Z,23.06
2022-12-28T14:10:04.456Z,23.05
2022-12-28T14:11:04.426Z,23.05
2022-12-28T14:12:04.416Z,23.05
2022-12-28T14:13:04.389Z,23.04
2022-12-28T14:14:04.371Z,23.03
2022-12-28T14:15:04.331Z,23.04
2022-12-28T14:16:04.371Z,23.04
2022-12-28T14:17:04.302Z,23.05
2022-12-28T14:18:04.277Z,23.03
2022-12-28T14:19:04.853Z,23.03
2022-12-28T14:20:04.232Z,23.03
2022-12-28T14:21:04.219Z,23.04
2022-12-28T14:22:06.790Z,23.04
2022-12-28T14:24:04.128Z,23.02
2022-12-28T14:25:04.085Z,23.02
2022-12-28T14:26:04.040Z,23.02
2022-12-28T14:27:04.025Z,23.03
2022-12-28T14:28:04.076Z,23.02
2022-12-28T14:29:03.966Z,23.02
2022-12-28T14:30:03.937Z,23.02
2022-12-28T14:31:03.930Z,23.02
2022-12-28T14:32:03.894Z,23.03
2022-12-28T14:33:07.093Z,23.02
2022-12-28T14:35:03.841Z,23.02
2022-12-28T14:36:03.785Z,23.01
2022-12-28T14:37:03.785Z,23.02
2022-12-28T14:38:03.752Z,23.02
2022-12-28T14:39:05.233Z,23.03
2022-12-28T14:40:03.673Z,23.02
2022-12-28T14:41:03.680Z,23.02
2022-12-28T14:42:03.635Z,23.01
2022-12-28T14:43:04.011Z,23.02
2022-12-28T14:44:03.619Z,23.02
2022-12-28T14:45:03.562Z,23.02
2022-12-28T14:46:06.692Z,23.01
2022-12-28T14:47:03.581Z,23.01
2022-12-28T14:48:03.499Z,23.01
2022-12-28T14:49:03.485Z,23.00
2022-12-28T14:50:03.466Z,23.00
2022-12-28T14:51:03.453Z,23.00
2022-12-28T14:52:03.428Z,23.00
2022-12-28T14:53:03.431Z,23.00
2022-12-28T14:54:03.386Z,23.01
2022-12-28T14:55:03.340Z,23.01
2022-12-28T14:56:03.329Z,23.01
2022-12-28T14:57:03.291Z,23.00
2022-12-28T14:58:03.272Z,23.01
2022-12-28T14:59:03.242Z,23.00
2022-12-28T15:00:03.210Z,23.00
2022-12-28T15:01:03.256Z,23.00
2022-12-28T15:02:03.285Z,23.00
2022-12-28T15:03:03.200Z,23.01
2022-12-28T15:04:03.140Z,22.99
2022-12-28T15:05:03.102Z,23.00
2022-12-28T15:06:03.092Z,23.00
2022-12-28T15:07:03.059Z,23.00
2022-12-28T15:08:03.025Z,22.98
2022-12-28T15:09:03.008Z,22.99
2022-12-28T15:10:02.978Z,22.98
2022-12-28T15:13:02.911Z,22.98
2022-12-28T15:14:02.921Z,22.99
2022-12-28T15:15:02.864Z,22.99
2022-12-28T15:16:02.928Z,22.97
2022-12-28T15:17:02.927Z,22.98
2022-12-28T15:18:02.817Z,22.98
2022-12-28T15:19:02.787Z,22.98
2022-12-28T15:20:02.756Z,22.97
2022-12-28T15:21:02.773Z,22.97
2022-12-28T15:22:02.716Z,22.97
2022-12-28T15:23:02.706Z,22.97
2022-12-28T15:24:02.675Z,22.96
2022-12-28T15:25:02.658Z,22.97
2022-12-28T15:26:02.617Z,22.98
2022-12-28T15:27:02.688Z,22.97
2022-12-28T15:28:02.567Z,22.97
2022-12-28T15:29:02.550Z,22.97
2022-12-28T15:30:06.564Z,22.96
2022-12-28T15:32:02.487Z,22.96
2022-12-28T15:33:02.471Z,22.96
2022-12-28T15:34:02.434Z,22.96
2022-12-28T15:35:02.404Z,22.97
2022-12-28T15:36:02.373Z,22.96
2022-12-28T15:37:02.344Z,22.96
2022-12-28T15:38:02.329Z,22.95
2022-12-28T15:39:02.304Z,22.96
2022-12-28T15:40:02.260Z,22.96
2022-12-28T15:41:02.246Z,22.96
2022-12-28T15:42:02.243Z,22.96
2022-12-28T15:43:02.194Z,22.95
2022-12-28T15:44:02.160Z,22.95
2022-12-28T15:45:02.139Z,22.94
2022-12-28T15:46:02.111Z,22.95
2022-12-28T15:47:02.169Z,22.94
2022-12-28T15:48:02.076Z,22.94
2022-12-28T15:49:02.068Z,22.92
2022-12-28T15:50:02.239Z,22.93
2022-12-28T15:51:01.985Z,22.94
2022-12-28T15:52:01.969Z,22.93
2022-12-28T15:53:01.944Z,22.93
2022-12-28T15:54:01.920Z,22.94
2022-12-28T15:55:01.919Z,22.93
2022-12-28T15:56:01.859Z,22.93
2022-12-28T15:57:01.856Z,22.93
2022-12-28T15:58:01.817Z,22.93
2022-12-28T15:59:01.775Z,22.93
2022-12-28T16:00:01.811Z,22.93
2022-12-28T16:01:01.853Z,22.93
2022-12-28T16:02:01.897Z,22.93
2022-12-28T16:03:01.858Z,22.93
2022-12-28T16:05:01.662Z,22.93
2022-12-28T16:06:01.619Z,22.93
2022-12-28T16:07:01.579Z,22.92
2022-12-28T16:08:01.548Z,22.92
2022-12-28T16:09:01.568Z,22.91
2022-12-28T16:10:01.533Z,22.91
2022-12-28T16:11:01.495Z,22.91
2022-12-28T16:12:01.467Z,22.92
2022-12-28T16:13:01.455Z,22.91
2022-12-28T16:14:01.418Z,22.91
2022-12-28T16:15:01.403Z,22.91
2022-12-28T16:16:01.395Z,22.91
2022-12-28T16:17:01.397Z,22.91
2022-12-28T16:18:01.303Z,22.90
2022-12-28T16:19:01.282Z,22.90
2022-12-28T16:20:01.345Z,22.90
2022-12-28T16:21:01.227Z,22.90
2022-12-28T16:22:01.210Z,22.89
2022-12-28T16:23:01.180Z,22.90
2022-12-28T16:24:01.179Z,22.89
2022-12-28T16:25:01.144Z,22.89
2022-12-28T16:26:01.134Z,22.90
2022-12-28T16:27:01.887Z,22.89
2022-12-28T16:28:01.068Z,22.90
2022-12-28T17:52:59.001Z,22.78
2022-12-28T17:53:58.970Z,22.78
2022-12-28T17:54:59.014Z,22.77
2022-12-28T17:55:58.925Z,22.78
2022-12-28T17:56:58.914Z,22.78
2022-12-28T17:57:58.922Z,22.78
2022-12-28T17:58:58.881Z,22.78
2022-12-28T17:59:58.841Z,22.77
2022-12-28T18:00:58.896Z,22.77
2022-12-28T18:01:59.029Z,22.77
2022-12-28T18:02:59.084Z,22.76
2022-12-28T18:03:58.900Z,22.76
2022-12-28T18:04:58.739Z,22.76
2022-12-28T18:05:58.715Z,22.77
2022-12-28T18:06:58.704Z,22.76
2022-12-28T18:07:58.666Z,22.76
2022-12-28T18:08:58.668Z,22.76
2022-12-28T18:09:58.632Z,22.76
2022-12-28T18:10:58.616Z,22.75
2022-12-28T18:11:58.577Z,22.75
2022-12-28T18:12:58.550Z,22.75
2022-12-28T18:13:58.529Z,22.75
2022-12-28T18:14:58.495Z,22.74
2022-12-28T18:15:58.476Z,22.75
2022-12-28T18:16:58.485Z,22.75
2022-12-28T18:17:58.427Z,22.75
2022-12-28T18:18:58.386Z,22.74
2022-12-28T18:19:58.371Z,22.75
2022-12-28T18:20:58.357Z,22.75
2022-12-28T18:21:58.334Z,22.74
2022-12-28T18:22:58.306Z,22.74
2022-12-28T18:23:58.280Z,22.74
2022-12-28T18:24:58.246Z,22.74
2022-12-28T18:25:58.234Z,22.74
2022-12-28T18:26:58.190Z,22.75
2022-12-28T18:27:58.181Z,22.75
2022-12-28T18:28:58.147Z,22.74
2022-12-28T18:29:58.127Z,22.74
2022-12-28T18:31:01.939Z,22.74
2022-12-28T18:31:58.067Z,22.73
2022-12-28T18:32:58.068Z,22.74
2022-12-28T18:33:58.042Z,22.73
2022-12-28T18:34:58.007Z,22.74
2022-12-28T18:35:57.973Z,22.74
2022-12-28T18:36:57.959Z,22.74
2022-12-28T18:37:57.944Z,22.73
2022-12-28T18:38:57.912Z,22.73
2022-12-28T18:39:57.897Z,22.74
2022-12-28T18:40:57.862Z,22.74
2022-12-28T18:41:57.842Z,22.73
2022-12-28T18:42:57.827Z,22.73
2022-12-28T18:43:57.794Z,22.73
2022-12-28T18:44:57.804Z,22.72
2022-12-28T18:45:57.807Z,22.73
2022-12-28T18:46:57.741Z,22.72
2022-12-28T18:47:57.735Z,22.73
2022-12-28T18:48:57.711Z,22.73
2022-12-28T18:49:57.670Z,22.72
2022-12-28T18:50:57.663Z,22.71
2022-12-28T18:51:57.635Z,22.73
2022-12-28T18:52:57.620Z,22.72
2022-12-28T18:53:57.618Z,22.72
2022-12-28T18:54:57.586Z,22.73
2022-12-28T18:55:57.575Z,22.72
2022-12-28T18:56:57.543Z,22.71
2022-12-28T18:57:57.582Z,22.72
2022-12-28T18:58:57.502Z,22.72
2022-12-28T18:59:57.479Z,22.71
2022-12-28T19:00:57.506Z,22.73
2022-12-28T19:02:07.074Z,22.72
2022-12-28T19:02:58.601Z,22.69
2022-12-28T19:03:57.667Z,22.71
2022-12-28T19:04:57.481Z,22.71
2022-12-28T19:06:02.286Z,22.71
2022-12-28T19:06:58.359Z,22.71
2022-12-28T19:07:57.356Z,22.71
2022-12-28T19:08:57.343Z,22.71
2022-12-28T19:09:57.509Z,22.71
2022-12-28T19:10:57.292Z,22.71
2022-12-28T19:11:57.267Z,22.72
2022-12-28T19:12:57.250Z,22.72
2022-12-28T19:13:57.222Z,22.72
2022-12-28T19:14:57.210Z,22.71
2022-12-28T19:15:57.244Z,22.71
2022-12-28T19:16:57.184Z,22.72
2022-12-28T19:17:57.188Z,22.71
2022-12-28T19:18:57.162Z,22.72
2022-12-28T19:19:57.126Z,22.71
2022-12-28T19:20:57.120Z,22.70
2022-12-28T19:21:59.098Z,22.71
2022-12-28T19:22:57.108Z,22.70
2022-12-28T19:23:57.063Z,22.70
2022-12-28T19:24:57.095Z,22.70
2022-12-28T19:25:57.029Z,22.70
2022-12-28T19:26:56.997Z,22.70
2022-12-28T19:27:57.001Z,22.69
2022-12-28T19:28:56.980Z,22.70
2022-12-28T19:29:56.956Z,22.71
2022-12-28T19:31:02.705Z,22.70
2022-12-28T19:31:57.960Z,22.70
2022-12-28T19:32:56.892Z,22.70
2022-12-28T19:33:56.865Z,22.70
2022-12-28T19:34:56.849Z,22.69
2022-12-28T19:35:56.827Z,22.69
2022-12-28T19:36:56.833Z,22.69
2022-12-28T19:37:56.810Z,22.69
2022-12-28T19:38:56.810Z,22.69
2022-12-28T19:39:58.102Z,22.69
2022-12-28T19:40:56.745Z,22.69
2022-12-28T19:41:56.724Z,22.69
2022-12-28T19:42:56.704Z,22.69
2022-12-28T19:43:56.703Z,22.69
2022-12-28T19:44:56.671Z,22.69
2022-12-28T19:45:56.659Z,22.69
2022-12-28T19:46:56.687Z,22.68
2022-12-28T19:47:56.618Z,22.69
2022-12-28T19:48:56.592Z,22.69
2022-12-28T19:49:56.574Z,22.69
2022-12-28T19:50:56.540Z,22.69
2022-12-28T19:51:56.551Z,22.69
2022-12-28T19:52:56.515Z,22.68
2022-12-28T19:53:56.494Z,22.69
2022-12-28T19:54:56.484Z,22.69
2022-12-28T19:55:56.457Z,22.69
2022-12-28T19:56:56.436Z,22.68
2022-12-28T19:57:56.425Z,22.68
2022-12-28T19:59:03.050Z,22.69
2022-12-28T19:59:57.388Z,22.68
2022-12-28T20:00:56.488Z,22.68
2022-12-28T20:01:56.488Z,22.68
2022-12-28T20:02:56.457Z,22.68
2022-12-28T20:03:56.425Z,22.68
2022-12-28T20:04:56.324Z,22.68
2022-12-28T20:05:56.314Z,22.68
2022-12-28T20:06:56.278Z,22.68
2022-12-28T20:07:56.271Z,22.68
2022-12-28T20:08:56.262Z,22.68
2022-12-28T20:09:56.231Z,22.69
2022-12-28T20:10:56.225Z,22.69
2022-12-28T20:11:56.207Z,22.69
2022-12-28T20:12:56.183Z,22.69
2022-12-28T20:13:56.179Z,22.69
2022-12-28T20:14:56.146Z,22.69
2022-12-28T20:15:56.169Z,22.68
2022-12-28T20:16:56.123Z,22.68
2022-12-28T20:17:56.102Z,22.68
2022-12-28T20:18:56.110Z,22.68
2022-12-28T20:19:56.123Z,22.68
2022-12-28T20:21:57.040Z,22.68
2022-12-28T20:22:56.020Z,22.68
2022-12-28T20:23:56.007Z,22.68
2022-12-28T20:24:55.979Z,22.68
2022-12-28T20:25:55.952Z,22.68
2022-12-28T20:27:01.310Z,22.69
2022-12-28T20:27:56.908Z,22.69
2022-12-28T20:28:55.894Z,22.69
2022-12-28T20:29:56.479Z,22.68
2022-12-28T20:30:55.909Z,22.69
2022-12-28T20:31:56.527Z,22.68
2022-12-28T20:32:55.855Z,22.68
2022-12-28T20:33:55.872Z,22.67
2022-12-28T20:34:56.477Z,22.68
2022-12-28T20:35:56.516Z,22.69
2022-12-28T20:36:55.817Z,22.68
2022-12-28T20:37:55.758Z,22.67
2022-12-28T20:38:56.545Z,22.67
2022-12-28T20:39:55.805Z,22.67
2022-12-28T20:40:55.872Z,22.68
2022-12-28T20:41:55.746Z,22.67
2022-12-28T20:42:55.672Z,22.68
2022-12-28T20:43:55.643Z,22.67
2022-12-28T20:44:55.620Z,22.66
2022-12-28T20:45:55.594Z,22.66
2022-12-28T20:46:55.739Z,22.67
2022-12-28T20:47:55.542Z,22.67
2022-12-28T20:48:55.517Z,22.67
2022-12-28T20:49:55.515Z,22.67
2022-12-28T20:50:55.482Z,22.66
2022-12-28T20:51:55.481Z,22.67
2022-12-28T20:52:55.448Z,22.67
2022-12-28T20:53:55.438Z,22.67
2022-12-28T20:54:55.418Z,22.66
2022-12-28T20:55:55.385Z,22.67
2022-12-28T20:56:56.398Z,22.67
2022-12-28T20:57:55.363Z,22.68
2022-12-28T20:58:55.358Z,22.67
2022-12-28T20:59:55.319Z,22.67
2022-12-28T21:00:55.305Z,22.68
2022-12-28T21:01:55.561Z,22.67
2022-12-28T21:02:55.248Z,22.68
2022-12-28T21:03:56.047Z,22.68
2022-12-28T21:04:55.194Z,22.68
2022-12-28T21:05:55.180Z,22.68
2022-12-28T21:06:55.175Z,22.68
2022-12-28T21:07:55.157Z,22.68
2022-12-28T21:08:55.123Z,22.68
2022-12-28T21:09:55.098Z,22.69
2022-12-28T21:10:55.074Z,22.68
2022-12-28T21:11:55.062Z,22.68
2022-12-28T21:12:55.034Z,22.67
2022-12-28T21:13:55.013Z,22.68
2022-12-28T21:14:55.016Z,22.68
2022-12-28T21:15:55.041Z,22.68
2022-12-28T21:16:55.032Z,22.68
2022-12-28T21:17:54.943Z,22.68
2022-12-28T21:18:54.915Z,22.68
2022-12-28T21:19:54.888Z,22.68
2022-12-28T21:20:54.901Z,22.68
2022-12-28T21:21:54.840Z,22.68
2022-12-28T21:22:54.835Z,22.68
2022-12-28T21:23:54.807Z,22.68
2022-12-28T21:24:54.813Z,22.67
2022-12-28T21:25:54.750Z,22.67
2022-12-28T21:26:54.737Z,22.67
2022-12-28T21:27:54.729Z,22.67
2022-12-28T21:28:54.707Z,22.67
2022-12-28T21:29:54.699Z,22.67
2022-12-28T21:30:54.656Z,22.67
2022-12-28T21:31:54.672Z,22.67
2022-12-28T21:32:54.606Z,22.66
2022-12-28T21:33:54.579Z,22.67
2022-12-28T21:34:54.568Z,22.68
2022-12-28T21:35:54.554Z,22.67
2022-12-28T21:36:54.510Z,22.68
2022-12-28T21:37:54.496Z,22.67
2022-12-28T21:38:54.463Z,22.68
2022-12-28T21:39:54.445Z,22.68
2022-12-28T21:40:54.447Z,22.68
2022-12-28T21:41:54.411Z,22.68
2022-12-28T21:42:54.384Z,22.68
2022-12-28T21:43:54.356Z,22.68
2022-12-28T21:44:54.339Z,22.68
2022-12-28T21:45:58.458Z,22.67
2022-12-28T21:46:55.303Z,22.67
2022-12-28T21:47:54.287Z,22.67
2022-12-28T21:48:54.253Z,22.67
2022-12-28T21:49:54.252Z,22.67
2022-12-28T21:50:54.202Z,22.67
2022-12-28T21:51:54.185Z,22.68
2022-12-28T21:52:54.169Z,22.68
2022-12-28T21:53:54.138Z,22.68
2022-12-28T21:54:54.111Z,22.68
2022-12-28T21:55:54.094Z,22.68
2022-12-28T21:56:54.091Z,22.68
2022-12-28T21:57:54.059Z,22.68
2022-12-28T21:58:54.014Z,22.68
2022-12-28T21:59:53.983Z,22.67
2022-12-28T22:00:53.987Z,22.67
2022-12-28T22:01:54.172Z,22.68
2022-12-28T22:02:54.163Z,22.67
2022-12-28T22:03:53.910Z,22.68
2022-12-28T22:04:58.684Z,22.67
2022-12-28T22:05:54.836Z,22.67
2022-12-28T22:06:53.808Z,22.67
2022-12-28T22:07:53.794Z,22.67
2022-12-28T22:08:53.751Z,22.67
2022-12-28T22:09:53.734Z,22.67
2022-12-28T22:10:56.421Z,22.66
2022-12-28T22:11:53.693Z,22.67
2022-12-28T22:12:53.665Z,22.67
2022-12-28T22:13:53.646Z,22.67
2022-12-28T22:14:53.623Z,22.67
2022-12-28T22:15:53.610Z,22.66
2022-12-28T22:16:53.696Z,22.67
2022-12-28T22:17:53.545Z,22.67
2022-12-28T22:19:01.998Z,22.67
2022-12-28T22:19:54.519Z,22.66
2022-12-28T22:20:53.493Z,22.66
2022-12-28T22:21:53.473Z,22.66
2022-12-28T22:22:53.447Z,22.66
2022-12-28T22:23:53.419Z,22.66
2022-12-28T22:24:53.393Z,22.66
2022-12-28T22:25:53.401Z,22.65
2022-12-28T22:26:53.355Z,22.66
2022-12-28T22:27:54.011Z,22.66
2022-12-28T22:28:53.324Z,22.66
2022-12-28T22:29:53.292Z,22.66
2022-12-28T22:30:53.291Z,22.65
2022-12-28T22:31:53.304Z,22.66
2022-12-28T22:32:53.244Z,22.66
2022-12-28T22:33:53.476Z,22.67
2022-12-28T22:34:53.218Z,22.67
2022-12-28T22:35:53.174Z,22.67
2022-12-28T22:36:54.013Z,22.67
2022-12-28T22:37:53.127Z,22.66
2022-12-28T22:38:53.112Z,22.66
2022-12-28T22:39:53.109Z,22.67
2022-12-28T22:40:53.074Z,22.66
2022-12-28T22:41:53.121Z,22.66
2022-12-28T22:42:53.066Z,22.66
2022-12-28T22:43:53.085Z,22.66
2022-12-28T22:44:53.051Z,22.66
2022-12-28T22:45:53.036Z,22.67
2022-12-28T22:46:53.556Z,22.67
2022-12-28T22:47:52.958Z,22.66
2022-12-28T22:48:53.008Z,22.66
2022-12-28T22:49:52.879Z,22.65
2022-12-28T22:50:52.869Z,22.67
2022-12-28T22:51:52.836Z,22.66
2022-12-28T22:52:52.811Z,22.67
2022-12-28T22:53:52.793Z,22.66
2022-12-28T22:54:52.783Z,22.66
2022-12-28T22:55:52.747Z,22.66
2022-12-28T22:56:52.746Z,22.66
2022-12-28T22:57:52.733Z,22.66
2022-12-28T22:58:52.710Z,22.66
2022-12-28T22:59:52.686Z,22.66
2022-12-28T23:00:52.702Z,22.66
2022-12-28T23:01:52.713Z,22.66
2022-12-28T23:02:52.865Z,22.66
2022-12-28T23:03:52.636Z,22.65
2022-12-28T23:04:52.585Z,22.66
2022-12-28T23:05:52.578Z,22.66
2022-12-28T23:06:52.561Z,22.65
2022-12-28T23:07:52.528Z,22.65
2022-12-28T23:08:52.506Z,22.66
2022-12-28T23:09:52.653Z,22.66
2022-12-28T23:10:52.474Z,22.66
2022-12-28T23:11:52.464Z,22.66
2022-12-28T23:12:52.435Z,22.67
2022-12-28T23:13:52.411Z,22.67
2022-12-28T23:14:52.376Z,22.66
2022-12-28T23:15:52.374Z,22.66
2022-12-28T23:16:52.409Z,22.66
2022-12-28T23:17:52.309Z,22.66
2022-12-28T23:18:52.296Z,22.66
2022-12-28T23:19:52.268Z,22.66
2022-12-28T23:20:52.248Z,22.65
2022-12-28T23:21:52.249Z,22.65
2022-12-28T23:22:52.218Z,22.66
2022-12-28T23:23:52.191Z,22.65
2022-12-28T23:24:52.153Z,22.66
2022-12-28T23:25:52.131Z,22.66
2022-12-28T23:26:52.114Z,22.65
2022-12-28T23:27:52.081Z,22.66
2022-12-28T23:28:52.054Z,22.65
2022-12-28T23:29:52.023Z,22.65
2022-12-28T23:30:52.065Z,22.65
2022-12-28T23:31:51.995Z,22.65
2022-12-28T23:32:51.958Z,22.65
2022-12-28T23:33:51.932Z,22.66
2022-12-28T23:34:52.065Z,22.66
2022-12-28T23:35:51.886Z,22.65
2022-12-28T23:36:51.869Z,22.65
2022-12-28T23:37:51.872Z,22.65
2022-12-28T23:38:51.832Z,22.66
2022-12-28T23:39:51.798Z,22.65
2022-12-28T23:40:51.789Z,22.65
2022-12-28T23:41:51.795Z,22.66
2022-12-28T23:42:51.748Z,22.65
2022-12-28T23:43:51.740Z,22.66
2022-12-28T23:44:51.699Z,22.65
2022-12-28T23:45:51.732Z,22.65
2022-12-28T23:46:58.253Z,22.66
2022-12-28T23:47:52.655Z,22.65
2022-12-28T23:48:51.616Z,22.65
2022-12-28T23:49:51.596Z,22.65
2022-12-28T23:50:51.568Z,22.66
2022-12-28T23:51:51.539Z,22.65
2022-12-28T23:52:51.532Z,22.66
2022-12-28T23:53:51.525Z,22.66
2022-12-28T23:54:51.583Z,22.66
2022-12-28T23:55:51.459Z,22.66
2022-12-28T23:56:51.437Z,22.66
2022-12-28T23:57:51.420Z,22.66
2022-12-28T23:58:51.391Z,22.66
2022-12-28T23:59:51.378Z,22.66
